Time;durP1;ratioP1;P1;durP2;ratioP2;P2;SDS_P1;SDS_P2;PMS_P1;PMS_P2;Temp;Humidity;BMP_temperature;BMP_pressure;BME280_temperature;BME280_humidity;BME280_pressure;Samples;Min_cycle;Max_cycle;Signal;HPM_P1;HPM_P2
2021/08/04 00:00:20;;;;;;;26.65;16.40;;;;;;;;;;4993168;28;20357;-59
2021/08/04 00:02:46;;;;;;;26.30;16.63;;;;;;;;;;5009604;28;20045;-58
2021/08/04 00:05:12;;;;;;;27.02;16.40;;;;;;;;;;5010916;28;20033;-59
2021/08/04 00:07:37;;;;;;;28.35;16.67;;;;;;;;;;5010302;28;20810;-58
2021/08/04 00:10:04;;;;;;;25.88;16.23;;;;;;;;;;5012395;28;20041;-58
2021/08/04 00:12:29;;;;;;;24.33;15.15;;;;;;;;;;4982211;28;20170;-59
2021/08/04 00:14:55;;;;;;;26.30;17.05;;;;;;;;;;5017964;28;20201;-58
2021/08/04 00:17:21;;;;;;;24.65;15.60;;;;;;;;;;5026861;28;20041;-59
2021/08/04 00:19:47;;;;;;;23.23;15.38;;;;;;;;;;5024877;28;20125;-58
2021/08/04 00:22:13;;;;;;;25.98;14.35;;;;;;;;;;5016430;28;20057;-59
2021/08/04 00:24:40;;;;;;;22.95;14.45;;;;;;;;;;5017081;28;20037;-59
2021/08/04 00:27:06;;;;;;;25.63;15.60;;;;;;;;;;5015748;28;20255;-58
2021/08/04 00:29:31;;;;;;;24.02;15.20;;;;;;;;;;5011741;28;20029;-55
2021/08/04 00:31:57;;;;;;;26.65;15.90;;;;;;;;;;5015262;28;20040;-58
2021/08/04 00:34:23;;;;;;;23.98;15.02;;;;;;;;;;5013973;28;20214;-61
2021/08/04 00:36:49;;;;;;;22.30;14.05;;;;;;;;;;5009474;28;20119;-61
2021/08/04 00:39:16;;;;;;;25.17;15.10;;;;;;;;;;5010165;28;20083;-57
2021/08/04 00:41:42;;;;;;;23.98;15.23;;;;;;;;;;5007701;28;20103;-57
2021/08/04 00:44:13;;;;;;;22.42;13.80;;;;;;;;;;5007336;28;20049;-57
2021/08/04 00:46:44;;;;;;;20.92;13.05;;;;;;;;;;5007307;28;20049;-58
2021/08/04 00:49:13;;;;;;;19.58;12.13;;;;;;;;;;5013051;28;20052;-58
2021/08/04 00:51:39;;;;;;;19.02;12.00;;;;;;;;;;5008652;28;20057;-58
2021/08/04 00:54:05;;;;;;;22.95;12.57;;;;;;;;;;5007604;28;20034;-59
2021/08/04 00:56:31;;;;;;;22.10;12.88;;;;;;;;;;5006930;28;20037;-58
2021/08/04 00:58:58;;;;;;;19.15;12.55;;;;;;;;;;5005760;28;20083;-58
2021/08/04 01:01:28;;;;;;;22.00;12.02;;;;;;;;;;5003565;28;20081;-58
2021/08/04 01:04:02;;;;;;;20.00;11.90;;;;;;;;;;5004779;28;20056;-59
2021/08/04 01:06:52;;;;;;;19.05;10.88;;;;;;;;;;5006678;28;20049;-60
2021/08/04 01:09:19;;;;;;;20.80;11.57;;;;;;;;;;5006816;28;20075;-60
2021/08/04 01:11:52;;;;;;;20.60;12.52;;;;;;;;;;5006856;28;20543;-60
2021/08/04 01:14:21;;;;;;;18.25;11.15;;;;;;;;;;5005547;28;20498;-60
2021/08/04 01:16:48;;;;;;;18.75;11.82;;;;;;;;;;5005398;28;20457;-61
2021/08/04 01:19:22;;;;;;;20.23;12.15;;;;;;;;;;5004758;28;20038;-59
2021/08/04 01:21:54;;;;;;;17.70;11.48;;;;;;;;;;5006196;28;20037;-60
2021/08/04 01:24:26;;;;;;;19.23;11.93;;;;;;;;;;5007215;28;20205;-60
2021/08/04 01:26:53;;;;;;;18.08;11.23;;;;;;;;;;5006630;28;20099;-60
2021/08/04 01:29:20;;;;;;;19.58;11.93;;;;;;;;;;5004672;28;20494;-59
2021/08/04 01:31:51;;;;;;;24.77;12.27;;;;;;;;;;5006091;28;20046;-60
2021/08/04 01:34:20;;;;;;;22.90;12.85;;;;;;;;;;5004754;28;20486;-58
2021/08/04 01:36:46;;;;;;;20.23;12.13;;;;;;;;;;5006054;28;20081;-58
2021/08/04 01:39:13;;;;;;;17.70;11.52;;;;;;;;;;5005561;28;20573;-59
2021/08/04 01:41:40;;;;;;;18.55;11.32;;;;;;;;;;5004809;28;20500;-60
2021/08/04 01:44:07;;;;;;;19.75;11.82;;;;;;;;;;5004651;28;20061;-59
2021/08/04 01:46:32;;;;;;;20.30;11.50;;;;;;;;;;5004504;28;20056;-59
2021/08/04 01:49:00;;;;;;;18.77;10.77;;;;;;;;;;4987106;28;20041;-60
2021/08/04 01:51:26;;;;;;;22.63;11.82;;;;;;;;;;4990750;28;20072;-60
2021/08/04 01:53:52;;;;;;;19.02;11.52;;;;;;;;;;5011015;28;20061;-61
2021/08/04 01:56:18;;;;;;;19.08;10.50;;;;;;;;;;5016853;28;20057;-60
2021/08/04 01:58:44;;;;;;;17.52;10.77;;;;;;;;;;5001183;28;20053;-59
2021/08/04 02:01:10;;;;;;;18.85;11.88;;;;;;;;;;5009122;28;22406;-60
2021/08/04 02:03:37;;;;;;;20.00;11.45;;;;;;;;;;5005789;28;20040;-59
2021/08/04 02:06:06;;;;;;;22.85;11.27;;;;;;;;;;4997038;28;20053;-59
2021/08/04 02:08:42;;;;;;;17.27;10.18;;;;;;;;;;5005542;28;20581;-60
2021/08/04 02:11:21;;;;;;;20.15;11.45;;;;;;;;;;4988450;28;20513;-60
2021/08/04 02:13:51;;;;;;;20.05;11.95;;;;;;;;;;5009619;28;20092;-61
2021/08/04 02:16:26;;;;;;;17.90;10.82;;;;;;;;;;5009649;28;21977;-60
2021/08/04 02:18:57;;;;;;;20.75;11.20;;;;;;;;;;5007624;28;20041;-60
2021/08/04 02:21:25;;;;;;;25.70;11.48;;;;;;;;;;5009692;28;20030;-60
2021/08/04 02:23:51;;;;;;;18.42;10.60;;;;;;;;;;5005667;28;20068;-59
2021/08/04 02:26:18;;;;;;;19.50;10.70;;;;;;;;;;5021330;28;20172;-59
2021/08/04 02:28:46;;;;;;;18.55;10.57;;;;;;;;;;5010780;28;20041;-59
2021/08/04 02:31:14;;;;;;;20.95;11.05;;;;;;;;;;5011485;28;20090;-59
2021/08/04 02:33:40;;;;;;;23.85;11.05;;;;;;;;;;5010710;28;20734;-57
2021/08/04 02:36:06;;;;;;;18.73;10.70;;;;;;;;;;5011438;28;20065;-60
2021/08/04 02:38:33;;;;;;;17.92;10.45;;;;;;;;;;5008950;28;20068;-61
2021/08/04 02:40:59;;;;;;;22.48;11.35;;;;;;;;;;5011355;28;20053;-58
2021/08/04 02:43:25;;;;;;;19.10;11.20;;;;;;;;;;5009468;28;20037;-59
2021/08/04 02:45:52;;;;;;;16.30;10.93;;;;;;;;;;5010549;28;20663;-60
2021/08/04 02:48:18;;;;;;;20.30;10.63;;;;;;;;;;4993583;28;20038;-59
2021/08/04 02:50:48;;;;;;;16.50;10.20;;;;;;;;;;5008969;28;20042;-60
2021/08/04 02:53:15;;;;;;;20.58;11.02;;;;;;;;;;5007112;28;20160;-60
2021/08/04 02:55:41;;;;;;;17.27;10.77;;;;;;;;;;5008971;28;20050;-61
2021/08/04 02:58:07;;;;;;;17.52;10.25;;;;;;;;;;4998726;28;20055;-58
2021/08/04 03:00:33;;;;;;;18.38;10.77;;;;;;;;;;5016313;28;20405;-61
2021/08/04 03:02:59;;;;;;;18.90;10.95;;;;;;;;;;5022436;28;20039;-60
2021/08/04 03:05:25;;;;;;;22.42;11.20;;;;;;;;;;5018972;28;20030;-60
2021/08/04 03:07:50;;;;;;;19.52;11.90;;;;;;;;;;5021365;28;20513;-60
2021/08/04 03:10:16;;;;;;;25.50;13.45;;;;;;;;;;5018563;28;20038;-59
2021/08/04 03:13:02;;;;;;;29.50;13.32;;;;;;;;;;5015573;28;20051;-59
2021/08/04 03:15:28;;;;;;;28.02;13.88;;;;;;;;;;5003868;28;20045;-60
2021/08/04 03:17:54;;;;;;;21.63;13.82;;;;;;;;;;5018529;28;20556;-58
2021/08/04 03:20:20;;;;;;;25.45;14.68;;;;;;;;;;5013937;28;20553;-60
2021/08/04 03:22:46;;;;;;;23.25;13.75;;;;;;;;;;5007650;28;20062;-59
2021/08/04 03:25:13;;;;;;;25.88;15.18;;;;;;;;;;5009231;28;20550;-60
2021/08/04 03:27:39;;;;;;;28.33;15.68;;;;;;;;;;4989301;28;20060;-60
2021/08/04 03:30:05;;;;;;;27.35;16.27;;;;;;;;;;5003821;28;20041;-59
2021/08/04 03:32:31;;;;;;;27.58;16.10;;;;;;;;;;5004070;28;20413;-60
2021/08/04 03:34:57;;;;;;;27.17;16.75;;;;;;;;;;5007726;28;20130;-58
2021/08/04 03:37:23;;;;;;;28.25;17.00;;;;;;;;;;5004805;28;20034;-59
2021/08/04 03:39:48;;;;;;;30.05;17.20;;;;;;;;;;5008280;28;20100;-58
2021/08/04 03:42:16;;;;;;;28.52;17.48;;;;;;;;;;5001746;28;20041;-59
2021/08/04 03:44:42;;;;;;;31.10;19.35;;;;;;;;;;5008414;28;20046;-59
2021/08/04 03:47:08;;;;;;;35.30;21.17;;;;;;;;;;4992421;28;20144;-59
2021/08/04 03:49:34;;;;;;;31.63;20.33;;;;;;;;;;5009019;28;20148;-59
2021/08/04 03:52:00;;;;;;;36.17;20.23;;;;;;;;;;5016753;28;20042;-57
2021/08/04 03:54:26;;;;;;;35.78;20.77;;;;;;;;;;5010851;28;20121;-59
2021/08/04 03:56:52;;;;;;;33.30;21.42;;;;;;;;;;5008455;28;20045;-59
2021/08/04 03:59:18;;;;;;;35.53;20.30;;;;;;;;;;5018741;28;20030;-59
2021/08/04 04:01:43;;;;;;;36.88;21.60;;;;;;;;;;5022813;28;20123;-58
2021/08/04 04:04:09;;;;;;;36.13;21.50;;;;;;;;;;5020509;28;20045;-59
2021/08/04 04:06:35;;;;;;;38.13;22.52;;;;;;;;;;5015743;28;20049;-61
2021/08/04 04:09:01;;;;;;;37.08;22.40;;;;;;;;;;5015204;28;20125;-59
2021/08/04 04:11:27;;;;;;;39.65;21.65;;;;;;;;;;5014258;28;20037;-59
2021/08/04 04:13:53;;;;;;;35.85;21.92;;;;;;;;;;5015021;28;20038;-58
2021/08/04 04:16:19;;;;;;;33.97;20.98;;;;;;;;;;5013445;28;20045;-59
2021/08/04 04:18:44;;;;;;;38.75;21.23;;;;;;;;;;4998684;28;20044;-60
2021/08/04 04:21:10;;;;;;;40.95;23.70;;;;;;;;;;5015136;28;20433;-56
2021/08/04 04:23:36;;;;;;;36.35;22.45;;;;;;;;;;5012234;28;20577;-58
2021/08/04 04:26:03;;;;;;;43.75;24.60;;;;;;;;;;5009297;28;20119;-58
2021/08/04 04:28:29;;;;;;;39.05;22.13;;;;;;;;;;5007693;28;20066;-58
2021/08/04 04:30:55;;;;;;;36.55;22.90;;;;;;;;;;5014582;28;20044;-59
2021/08/04 04:33:21;;;;;;;40.20;23.17;;;;;;;;;;5008655;28;20612;-62
2021/08/04 04:35:46;;;;;;;42.83;23.60;;;;;;;;;;5013775;28;20038;-59
2021/08/04 04:38:12;;;;;;;41.95;24.67;;;;;;;;;;5015872;28;20038;-58
2021/08/04 04:40:38;;;;;;;38.33;23.58;;;;;;;;;;5010041;28;20038;-59
2021/08/04 04:43:04;;;;;;;39.90;23.30;;;;;;;;;;5009276;28;20569;-59
2021/08/04 04:45:30;;;;;;;40.13;22.80;;;;;;;;;;5009857;28;20048;-58
2021/08/04 04:47:55;;;;;;;38.00;23.27;;;;;;;;;;5012293;28;20471;-58
2021/08/04 04:50:21;;;;;;;42.85;22.98;;;;;;;;;;5011509;28;20045;-59
2021/08/04 04:52:47;;;;;;;38.53;23.75;;;;;;;;;;5014463;28;20099;-59
2021/08/04 04:55:13;;;;;;;43.90;23.27;;;;;;;;;;5015106;28;20057;-62
2021/08/04 04:57:39;;;;;;;42.83;23.10;;;;;;;;;;5012038;28;20638;-59
2021/08/04 05:00:06;;;;;;;38.38;23.90;;;;;;;;;;5015966;28;20057;-59
2021/08/04 05:02:32;;;;;;;36.95;21.85;;;;;;;;;;5013859;28;20097;-62
2021/08/04 05:04:58;;;;;;;42.17;23.92;;;;;;;;;;5000334;28;20120;-61
2021/08/04 05:07:24;;;;;;;41.83;23.55;;;;;;;;;;5012224;28;20470;-60
2021/08/04 05:09:50;;;;;;;42.78;23.80;;;;;;;;;;5016041;28;21035;-59
2021/08/04 05:12:16;;;;;;;35.70;21.58;;;;;;;;;;5015348;28;20413;-58
2021/08/04 05:14:42;;;;;;;38.00;22.27;;;;;;;;;;5018821;28;20034;-59
2021/08/04 05:17:12;;;;;;;41.28;22.73;;;;;;;;;;4999604;28;20092;-58
2021/08/04 05:19:38;;;;;;;42.90;23.63;;;;;;;;;;5013566;28;20049;-59
2021/08/04 05:22:04;;;;;;;42.25;23.15;;;;;;;;;;5011353;28;20033;-58
2021/08/04 05:24:29;;;;;;;43.30;22.80;;;;;;;;;;5011253;28;20156;-59
2021/08/04 05:26:55;;;;;;;40.10;23.10;;;;;;;;;;5011834;28;20054;-59
2021/08/04 05:29:21;;;;;;;41.85;23.23;;;;;;;;;;5009195;28;20046;-56
2021/08/04 05:31:47;;;;;;;37.92;22.13;;;;;;;;;;5013466;28;20115;-59
2021/08/04 05:34:13;;;;;;;39.72;21.65;;;;;;;;;;5014686;28;20076;-59
2021/08/04 05:36:39;;;;;;;38.20;21.75;;;;;;;;;;5014426;28;20053;-60
2021/08/04 05:39:04;;;;;;;41.55;23.35;;;;;;;;;;5016548;28;20061;-57
2021/08/04 05:41:30;;;;;;;39.97;23.45;;;;;;;;;;5013554;28;20056;-57
2021/08/04 05:43:56;;;;;;;39.17;22.27;;;;;;;;;;5014022;28;20597;-57
2021/08/04 05:46:22;;;;;;;40.67;22.33;;;;;;;;;;5017205;28;20662;-59
2021/08/04 05:48:48;;;;;;;35.85;21.25;;;;;;;;;;5018495;28;20485;-56
2021/08/04 05:51:14;;;;;;;41.22;21.40;;;;;;;;;;5002108;28;20041;-61
2021/08/04 05:53:39;;;;;;;36.08;21.27;;;;;;;;;;4997457;28;20139;-59
2021/08/04 05:56:05;;;;;;;43.33;20.83;;;;;;;;;;5019529;28;20055;-59
2021/08/04 05:58:31;;;;;;;40.17;20.90;;;;;;;;;;5012342;28;20045;-60
2021/08/04 06:00:57;;;;;;;37.08;21.55;;;;;;;;;;5013198;28;20117;-57
2021/08/04 06:03:23;;;;;;;42.45;21.60;;;;;;;;;;5011549;28;20128;-57
2021/08/04 06:05:48;;;;;;;34.72;20.83;;;;;;;;;;5013527;28;20117;-58
2021/08/04 06:08:14;;;;;;;40.85;20.85;;;;;;;;;;5025544;28;20041;-56
2021/08/04 06:10:40;;;;;;;42.55;20.63;;;;;;;;;;5023839;28;20053;-58
2021/08/04 06:13:06;;;;;;;38.45;20.45;;;;;;;;;;5028517;28;20456;-59
2021/08/04 06:15:32;;;;;;;36.00;20.27;;;;;;;;;;5012622;28;20039;-58
2021/08/04 06:17:57;;;;;;;35.20;19.58;;;;;;;;;;5014336;28;20066;-58
2021/08/04 06:20:23;;;;;;;35.72;20.13;;;;;;;;;;5011436;28;20094;-58
2021/08/04 06:22:49;;;;;;;39.08;20.50;;;;;;;;;;5014375;28;20053;-58
2021/08/04 06:25:15;;;;;;;37.70;19.73;;;;;;;;;;5011382;28;20052;-59
2021/08/04 06:27:41;;;;;;;39.28;19.38;;;;;;;;;;5016845;28;20049;-58
2021/08/04 06:30:07;;;;;;;35.72;19.67;;;;;;;;;;4999464;28;20033;-57
2021/08/04 06:32:32;;;;;;;36.53;21.45;;;;;;;;;;5013740;28;20029;-58
2021/08/04 06:34:58;;;;;;;36.55;20.35;;;;;;;;;;5018142;28;20113;-56
2021/08/04 06:37:25;;;;;;;42.17;20.75;;;;;;;;;;5015438;28;20141;-58
2021/08/04 06:39:51;;;;;;;35.88;20.33;;;;;;;;;;5017347;28;20054;-58
2021/08/04 06:42:18;;;;;;;38.28;20.17;;;;;;;;;;5015841;28;20542;-58
2021/08/04 06:44:44;;;;;;;34.95;20.05;;;;;;;;;;5014680;28;20048;-59
2021/08/04 06:47:09;;;;;;;37.70;20.80;;;;;;;;;;5013952;28;20475;-59
2021/08/04 06:49:35;;;;;;;32.67;19.35;;;;;;;;;;5010375;28;20042;-58
2021/08/04 06:52:01;;;;;;;35.83;19.38;;;;;;;;;;5010228;28;20041;-58
2021/08/04 06:54:27;;;;;;;35.85;19.55;;;;;;;;;;5008750;28;20041;-58
2021/08/04 06:56:53;;;;;;;34.88;18.65;;;;;;;;;;5008654;28;20042;-58
2021/08/04 06:59:19;;;;;;;36.13;19.27;;;;;;;;;;5009689;28;20042;-58
2021/08/04 07:01:45;;;;;;;35.42;19.05;;;;;;;;;;5016890;28;20045;-58
2021/08/04 07:04:11;;;;;;;37.13;19.75;;;;;;;;;;5017376;28;20053;-59
2021/08/04 07:06:37;;;;;;;34.30;20.73;;;;;;;;;;5014406;28;20049;-58
2021/08/04 07:09:02;;;;;;;37.92;19.77;;;;;;;;;;5013012;28;20105;-57
2021/08/04 07:11:28;;;;;;;36.50;19.65;;;;;;;;;;5010691;28;20147;-58
2021/08/04 07:13:55;;;;;;;33.67;19.30;;;;;;;;;;5012067;28;20627;-57
2021/08/04 07:16:21;;;;;;;35.08;19.55;;;;;;;;;;5011448;28;20048;-57
2021/08/04 07:18:47;;;;;;;37.47;20.08;;;;;;;;;;5010522;28;20053;-56
2021/08/04 07:21:13;;;;;;;37.53;18.60;;;;;;;;;;5010829;28;20038;-57
2021/08/04 07:23:39;;;;;;;34.85;19.92;;;;;;;;;;5010153;28;20042;-56
2021/08/04 07:26:05;;;;;;;37.97;17.73;;;;;;;;;;5009443;28;20060;-58
2021/08/04 07:28:31;;;;;;;37.53;19.02;;;;;;;;;;5007053;28;20041;-57
2021/08/04 07:30:57;;;;;;;37.30;17.98;;;;;;;;;;5009861;28;20867;-56
2021/08/04 07:33:23;;;;;;;38.45;19.85;;;;;;;;;;5008652;28;20030;-55
2021/08/04 07:35:48;;;;;;;36.47;19.10;;;;;;;;;;5009587;28;20045;-56
2021/08/04 07:38:14;;;;;;;37.40;18.77;;;;;;;;;;5008519;28;20168;-56
2021/08/04 07:40:42;;;;;;;40.10;19.52;;;;;;;;;;5007586;28;20038;-57
2021/08/04 07:43:08;;;;;;;35.25;18.67;;;;;;;;;;5008127;28;20030;-56
2021/08/04 07:45:34;;;;;;;36.20;19.15;;;;;;;;;;5006822;28;20049;-57
2021/08/04 07:47:59;;;;;;;36.00;19.38;;;;;;;;;;5007600;28;20140;-55
2021/08/04 07:50:25;;;;;;;35.33;18.15;;;;;;;;;;5007730;28;20062;-57
2021/08/04 07:52:51;;;;;;;31.70;18.70;;;;;;;;;;5006351;28;20040;-57
2021/08/04 07:55:17;;;;;;;32.80;19.00;;;;;;;;;;5006667;28;20060;-57
2021/08/04 07:57:43;;;;;;;36.15;19.15;;;;;;;;;;5007698;28;20064;-57
2021/08/04 08:00:10;;;;;;;33.22;18.55;;;;;;;;;;5008448;28;20609;-55
2021/08/04 08:02:35;;;;;;;32.40;17.67;;;;;;;;;;5007819;28;20042;-57
2021/08/04 08:05:01;;;;;;;33.42;18.70;;;;;;;;;;5008244;28;20056;-58
2021/08/04 08:07:27;;;;;;;44.47;19.77;;;;;;;;;;5006211;28;20120;-58
2021/08/04 08:09:53;;;;;;;40.72;19.23;;;;;;;;;;5006405;28;20077;-57
2021/08/04 08:12:19;;;;;;;31.98;18.90;;;;;;;;;;5005607;28;20121;-57
2021/08/04 08:14:44;;;;;;;33.15;18.25;;;;;;;;;;5009418;28;20052;-58
2021/08/04 08:17:11;;;;;;;38.25;18.63;;;;;;;;;;5010859;28;20057;-55
2021/08/04 08:19:38;;;;;;;35.95;18.25;;;;;;;;;;5007933;28;21842;-57
2021/08/04 08:22:04;;;;;;;37.10;18.92;;;;;;;;;;5009762;28;20075;-57
2021/08/04 08:24:30;;;;;;;36.05;18.02;;;;;;;;;;5007096;28;20045;-58
2021/08/04 08:26:56;;;;;;;35.40;18.17;;;;;;;;;;5007377;28;20049;-57
2021/08/04 08:29:22;;;;;;;34.45;17.40;;;;;;;;;;5006110;28;20033;-56
2021/08/04 08:31:47;;;;;;;36.60;18.25;;;;;;;;;;5004825;28;20510;-58
2021/08/04 08:34:13;;;;;;;33.08;17.13;;;;;;;;;;5006880;28;20149;-57
2021/08/04 08:36:39;;;;;;;35.42;17.50;;;;;;;;;;5008632;28;20112;-57
2021/08/04 08:39:06;;;;;;;40.28;19.48;;;;;;;;;;5007001;28;20045;-58
2021/08/04 08:41:32;;;;;;;38.42;18.63;;;;;;;;;;5007011;28;20081;-57
2021/08/04 08:43:58;;;;;;;34.42;18.08;;;;;;;;;;5008366;28;20046;-57
2021/08/04 08:46:28;;;;;;;32.47;17.90;;;;;;;;;;5008069;28;20099;-57
2021/08/04 08:48:53;;;;;;;28.38;16.63;;;;;;;;;;5006152;28;20102;-57
2021/08/04 08:51:20;;;;;;;32.85;17.90;;;;;;;;;;5005115;28;20045;-57
2021/08/04 08:53:48;;;;;;;35.83;19.33;;;;;;;;;;5007323;28;20793;-58
2021/08/04 08:56:17;;;;;;;31.98;18.27;;;;;;;;;;5006376;28;20565;-57
2021/08/04 08:58:44;;;;;;;33.75;18.23;;;;;;;;;;5006836;28;20120;-58
2021/08/04 09:01:10;;;;;;;33.30;18.05;;;;;;;;;;5007889;28;20033;-57
2021/08/04 09:03:35;;;;;;;31.70;17.45;;;;;;;;;;5003959;28;20045;-57
2021/08/04 09:06:04;;;;;;;27.85;16.80;;;;;;;;;;5006885;28;20052;-57
2021/08/04 09:08:35;;;;;;;32.40;16.88;;;;;;;;;;5004777;28;20049;-56
2021/08/04 09:11:17;;;;;;;30.25;17.20;;;;;;;;;;5006171;28;20107;-57
2021/08/04 09:13:46;;;;;;;31.83;17.27;;;;;;;;;;5005708;28;20080;-59
2021/08/04 09:16:16;;;;;;;33.97;17.00;;;;;;;;;;5007574;28;20036;-57
2021/08/04 09:18:52;;;;;;;35.60;18.60;;;;;;;;;;5005848;28;20042;-57
2021/08/04 09:21:18;;;;;;;28.17;17.02;;;;;;;;;;5008563;28;20442;-57
2021/08/04 09:23:48;;;;;;;29.05;16.58;;;;;;;;;;5011337;28;20298;-59
2021/08/04 09:26:15;;;;;;;35.17;18.25;;;;;;;;;;5010726;28;20050;-56
2021/08/04 09:28:53;;;;;;;31.05;17.13;;;;;;;;;;5009440;28;20099;-56
2021/08/04 09:31:19;;;;;;;29.42;16.55;;;;;;;;;;5008633;28;20049;-57
2021/08/04 09:33:46;;;;;;;31.60;16.27;;;;;;;;;;5010872;28;20120;-57
2021/08/04 09:36:12;;;;;;;30.23;16.75;;;;;;;;;;5009244;28;22068;-57
2021/08/04 09:38:38;;;;;;;34.00;17.88;;;;;;;;;;5009373;28;20045;-56
2021/08/04 09:41:17;;;;;;;34.28;17.77;;;;;;;;;;5011008;28;20108;-57
2021/08/04 09:43:50;;;;;;;33.42;17.45;;;;;;;;;;5009914;28;20547;-56
2021/08/04 09:46:23;;;;;;;31.27;16.65;;;;;;;;;;5008757;28;20050;-57
2021/08/04 09:48:49;;;;;;;29.90;16.85;;;;;;;;;;5008499;28;20045;-57
2021/08/04 09:51:16;;;;;;;32.97;16.65;;;;;;;;;;5008683;28;20075;-56
2021/08/04 09:53:46;;;;;;;30.73;17.40;;;;;;;;;;4995151;28;20045;-57
2021/08/04 09:56:18;;;;;;;30.52;16.98;;;;;;;;;;5009096;28;20040;-57
2021/08/04 09:58:45;;;;;;;34.60;17.20;;;;;;;;;;5024758;28;20041;-56
2021/08/04 10:01:14;;;;;;;34.92;18.23;;;;;;;;;;5033620;28;20037;-56
2021/08/04 10:03:57;;;;;;;37.38;18.02;;;;;;;;;;5034410;28;20037;-56
2021/08/04 10:06:23;;;;;;;32.22;17.05;;;;;;;;;;5023367;28;20046;-57
2021/08/04 10:08:48;;;;;;;30.02;16.63;;;;;;;;;;5016217;28;20030;-55
2021/08/04 10:11:14;;;;;;;31.35;16.00;;;;;;;;;;5017836;28;20049;-55
2021/08/04 10:13:41;;;;;;;30.75;17.73;;;;;;;;;;5013316;28;20468;-55
2021/08/04 10:16:06;;;;;;;30.90;17.15;;;;;;;;;;5013328;28;20456;-55
2021/08/04 10:18:33;;;;;;;31.35;17.98;;;;;;;;;;5012246;28;20051;-54
2021/08/04 10:21:08;;;;;;;32.80;18.17;;;;;;;;;;5013724;28;20107;-56
2021/08/04 10:23:34;;;;;;;37.40;18.13;;;;;;;;;;5012296;28;20120;-55
2021/08/04 10:26:00;;;;;;;31.02;17.83;;;;;;;;;;5010361;28;20422;-56
2021/08/04 10:28:27;;;;;;;37.58;18.75;;;;;;;;;;5008207;28;20045;-55
2021/08/04 10:30:53;;;;;;;34.40;19.50;;;;;;;;;;5010687;28;20113;-55
2021/08/04 10:33:19;;;;;;;31.25;17.67;;;;;;;;;;5006694;28;20125;-55
2021/08/04 10:35:51;;;;;;;32.70;18.48;;;;;;;;;;5009218;28;20045;-56
2021/08/04 10:38:20;;;;;;;33.67;18.63;;;;;;;;;;5009007;28;20495;-56
2021/08/04 10:41:06;;;;;;;32.42;18.33;;;;;;;;;;5009819;28;20078;-55
2021/08/04 10:43:44;;;;;;;36.28;18.75;;;;;;;;;;5010052;28;20044;-56
2021/08/04 10:46:36;;;;;;;36.35;19.52;;;;;;;;;;5009229;28;20073;-57
2021/08/04 10:49:05;;;;;;;37.67;18.50;;;;;;;;;;5003220;28;20037;-56
2021/08/04 10:51:38;;;;;;;35.72;19.17;;;;;;;;;;5007859;28;20076;-57
2021/08/04 10:54:13;;;;;;;40.63;19.55;;;;;;;;;;5010143;28;20176;-56
2021/08/04 10:56:41;;;;;;;38.38;18.70;;;;;;;;;;5009093;28;20037;-56
2021/08/04 10:59:13;;;;;;;36.67;18.80;;;;;;;;;;5010054;28;20426;-56
2021/08/04 11:01:40;;;;;;;35.33;18.42;;;;;;;;;;5007488;28;20116;-57
2021/08/04 11:04:08;;;;;;;33.63;18.98;;;;;;;;;;5008456;28;20398;-56
2021/08/04 11:06:34;;;;;;;37.38;19.90;;;;;;;;;;5008913;28;20585;-58
2021/08/04 11:09:29;;;;;;;36.92;19.27;;;;;;;;;;5007818;28;20083;-54
2021/08/04 11:11:57;;;;;;;36.22;19.27;;;;;;;;;;4990710;28;20968;-56
2021/08/04 11:14:38;;;;;;;38.45;20.17;;;;;;;;;;5009327;28;20038;-55
2021/08/04 11:17:05;;;;;;;41.83;20.45;;;;;;;;;;5010042;28;20065;-56
2021/08/04 11:19:34;;;;;;;39.28;20.67;;;;;;;;;;5009758;28;20065;-55
2021/08/04 11:22:13;;;;;;;40.60;20.75;;;;;;;;;;5010178;28;20026;-56
2021/08/04 11:24:56;;;;;;;39.55;20.02;;;;;;;;;;5008866;28;20531;-56
2021/08/04 11:27:24;;;;;;;37.25;19.48;;;;;;;;;;5007406;28;20050;-57
2021/08/04 11:29:50;;;;;;;36.53;20.10;;;;;;;;;;5006365;28;20068;-57
2021/08/04 11:32:20;;;;;;;41.47;21.27;;;;;;;;;;5007729;28;20042;-57
2021/08/04 11:34:46;;;;;;;40.05;21.52;;;;;;;;;;5007917;28;20513;-56
2021/08/04 11:37:12;;;;;;;45.40;21.10;;;;;;;;;;5008455;28;20037;-56
2021/08/04 11:39:58;;;;;;;41.92;22.40;;;;;;;;;;5007672;28;20133;-57
2021/08/04 11:42:24;;;;;;;37.17;19.45;;;;;;;;;;5007219;28;20029;-57
2021/08/04 11:44:50;;;;;;;40.53;21.25;;;;;;;;;;5006545;28;20121;-57
2021/08/04 11:47:19;;;;;;;42.05;21.33;;;;;;;;;;5006896;28;20220;-57
2021/08/04 11:49:49;;;;;;;38.30;19.90;;;;;;;;;;5006630;28;20601;-57
2021/08/04 11:52:15;;;;;;;37.38;20.23;;;;;;;;;;5007121;28;20184;-56
2021/08/04 11:54:51;;;;;;;38.88;21.08;;;;;;;;;;5008130;28;20042;-56
2021/08/04 11:57:20;;;;;;;42.38;20.13;;;;;;;;;;5008836;28;20034;-54
2021/08/04 11:59:48;;;;;;;41.08;20.38;;;;;;;;;;5008517;28;20049;-55
2021/08/04 12:02:14;;;;;;;44.38;22.20;;;;;;;;;;4990726;28;20046;-57
2021/08/04 12:04:48;;;;;;;39.10;21.33;;;;;;;;;;5008332;28;20093;-57
2021/08/04 12:07:14;;;;;;;42.50;20.38;;;;;;;;;;5008816;28;20163;-56
2021/08/04 12:09:40;;;;;;;40.45;21.55;;;;;;;;;;5006580;28;20040;-57
2021/08/04 12:12:10;;;;;;;43.88;20.08;;;;;;;;;;5010572;28;20030;-57
2021/08/04 12:14:36;;;;;;;39.15;20.98;;;;;;;;;;5011009;28;20554;-56
2021/08/04 12:17:03;;;;;;;35.92;18.90;;;;;;;;;;5012869;28;20057;-57
2021/08/04 12:19:28;;;;;;;47.35;20.67;;;;;;;;;;4992601;28;20489;-57
2021/08/04 12:21:54;;;;;;;39.58;21.17;;;;;;;;;;5010815;28;20057;-57
2021/08/04 12:24:20;;;;;;;39.13;20.70;;;;;;;;;;5007600;28;20037;-56
2021/08/04 12:26:47;;;;;;;40.90;21.52;;;;;;;;;;5006177;28;20637;-58
2021/08/04 12:29:16;;;;;;;45.05;20.70;;;;;;;;;;5005731;28;20061;-58
2021/08/04 12:31:59;;;;;;;47.20;22.65;;;;;;;;;;5006941;28;21038;-58
2021/08/04 12:34:25;;;;;;;43.17;21.25;;;;;;;;;;5005280;28;20065;-58
2021/08/04 12:36:54;;;;;;;40.25;21.27;;;;;;;;;;5007072;28;20767;-58
2021/08/04 12:39:20;;;;;;;38.03;21.27;;;;;;;;;;5005196;28;20087;-59
2021/08/04 12:41:46;;;;;;;39.05;21.23;;;;;;;;;;5004859;28;20043;-58
2021/08/04 12:44:16;;;;;;;39.22;20.67;;;;;;;;;;5006035;28;20041;-59
2021/08/04 12:46:42;;;;;;;41.10;22.00;;;;;;;;;;5004895;28;20057;-59
2021/08/04 12:49:20;;;;;;;48.33;23.35;;;;;;;;;;5004733;28;20045;-55
2021/08/04 12:51:56;;;;;;;44.38;21.73;;;;;;;;;;5006203;28;20218;-59
2021/08/04 12:54:29;;;;;;;42.05;21.67;;;;;;;;;;5004455;28;20668;-60
2021/08/04 12:56:55;;;;;;;37.75;20.90;;;;;;;;;;4995218;28;20502;-59
2021/08/04 12:59:23;;;;;;;39.50;23.13;;;;;;;;;;5005465;28;20092;-60
2021/08/04 13:01:52;;;;;;;40.80;21.58;;;;;;;;;;5004690;28;20038;-59
2021/08/04 13:04:32;;;;;;;39.83;21.40;;;;;;;;;;5005209;28;20064;-57
2021/08/04 13:07:01;;;;;;;47.47;23.15;;;;;;;;;;5006703;28;20045;-57
2021/08/04 13:09:28;;;;;;;43.33;23.15;;;;;;;;;;5005552;28;20509;-59
2021/08/04 13:12:12;;;;;;;44.78;21.73;;;;;;;;;;5007035;28;20046;-58
2021/08/04 13:14:57;;;;;;;37.10;21.15;;;;;;;;;;5006779;28;20398;-58
2021/08/04 13:17:23;;;;;;;40.35;22.52;;;;;;;;;;5005011;28;20509;-58
2021/08/04 13:19:49;;;;;;;42.03;21.95;;;;;;;;;;5006186;28;20045;-54
2021/08/04 13:22:15;;;;;;;36.30;20.00;;;;;;;;;;5006741;28;20058;-58
2021/08/04 13:24:42;;;;;;;40.10;21.88;;;;;;;;;;5005059;28;20064;-58
2021/08/04 13:27:30;;;;;;;47.00;23.77;;;;;;;;;;4986335;28;20046;-58
2021/08/04 13:30:16;;;;;;;40.17;22.48;;;;;;;;;;4965094;28;20071;-58
2021/08/04 13:32:42;;;;;;;38.90;21.88;;;;;;;;;;4967368;28;20050;-58
2021/08/04 13:35:08;;;;;;;36.03;22.00;;;;;;;;;;4967458;28;20031;-57
2021/08/04 13:37:34;;;;;;;43.17;22.45;;;;;;;;;;4968622;28;21599;-58
2021/08/04 13:40:00;;;;;;;41.03;22.35;;;;;;;;;;4966985;28;20964;-55
2021/08/04 13:42:26;;;;;;;39.85;22.52;;;;;;;;;;4966836;28;20511;-57
2021/08/04 13:44:51;;;;;;;41.45;22.33;;;;;;;;;;4967566;28;20074;-57
2021/08/04 13:47:17;;;;;;;38.88;23.00;;;;;;;;;;4966903;28;20051;-57
2021/08/04 13:49:43;;;;;;;38.13;23.42;;;;;;;;;;4966875;28;20141;-57
2021/08/04 13:52:09;;;;;;;39.53;23.30;;;;;;;;;;4966005;28;20375;-57
2021/08/04 13:54:35;;;;;;;41.28;21.98;;;;;;;;;;4966923;28;20222;-57
2021/08/04 13:57:00;;;;;;;39.25;23.30;;;;;;;;;;4967142;28;20054;-55
2021/08/04 13:59:26;;;;;;;38.40;21.52;;;;;;;;;;4966100;28;20058;-57
2021/08/04 14:01:52;;;;;;;42.25;22.42;;;;;;;;;;4968906;28;20578;-58
2021/08/04 14:04:19;;;;;;;39.88;22.52;;;;;;;;;;4966506;28;20066;-55
2021/08/04 14:06:45;;;;;;;41.60;23.13;;;;;;;;;;4968104;28;20077;-55
2021/08/04 14:09:10;;;;;;;39.30;22.17;;;;;;;;;;4969188;28;20137;-57
2021/08/04 14:11:36;;;;;;;42.00;22.90;;;;;;;;;;4970099;28;20505;-57
2021/08/04 14:14:02;;;;;;;41.53;24.05;;;;;;;;;;4972265;28;20082;-58
2021/08/04 14:16:29;;;;;;;41.30;22.98;;;;;;;;;;4970743;28;20150;-57
2021/08/04 14:18:55;;;;;;;39.80;23.40;;;;;;;;;;4971473;28;20043;-58